Time;durP1;ratioP1;P1;durP2;ratioP2;P2;SDS_P1;SDS_P2;PMS_P1;PMS_P2;Temp;Humidity;BMP_temperature;BMP_pressure;BME280_temperature;BME280_humidity;BME280_pressure;Samples;Min_cycle;Max_cycle;Signal;HPM_P1;HPM_P2
2022/02/17 00:00:00;;;;;;;38.43;21.33;;;;;;;6.59;68.31;99917.43;126292;1096;104143;-78
2022/02/17 00:02:32;;;;;;;36.23;19.37;;;;;;;6.59;68.72;99909.61;126290;1099;104168;-79
2022/02/17 00:05:03;;;;;;;37.10;20.25;;;;;;;6.56;68.39;99910.39;126287;1099;104249;-79
2022/02/17 00:07:37;;;;;;;38.20;19.80;;;;;;;6.56;68.31;99914.69;126195;1099;104158;-79
2022/02/17 00:10:11;;;;;;;37.23;20.07;;;;;;;6.56;68.49;99918.21;126378;1099;104139;-79
2022/02/17 00:12:43;;;;;;;35.50;19.80;;;;;;;6.56;68.50;99904.27;126237;1099;105540;-79
2022/02/17 00:15:15;;;;;;;36.00;19.77;;;;;;;6.53;68.26;99897.23;126149;1096;104255;-78
2022/02/17 00:17:46;;;;;;;40.63;20.73;;;;;;;6.51;68.42;99900.58;126113;1096;104179;-78
2022/02/17 00:20:18;;;;;;;38.87;20.07;;;;;;;6.47;68.51;99905.66;126149;1096;104226;-78
2022/02/17 00:22:50;;;;;;;37.87;20.57;;;;;;;6.45;68.56;99909.94;126105;1096;104216;-78
2022/02/17 00:25:21;;;;;;;34.90;19.33;;;;;;;6.44;68.89;99900.33;126097;1099;104150;-78
2022/02/17 00:27:53;;;;;;;34.20;19.20;;;;;;;6.44;68.59;99895.11;126096;1099;104296;-78
2022/02/17 00:30:24;;;;;;;36.27;19.10;;;;;;;6.43;68.65;99885.50;126328;1099;104152;-78
2022/02/17 00:32:56;;;;;;;36.37;19.83;;;;;;;6.41;68.61;99879.34;126294;1097;104236;-79
2022/02/17 00:35:27;;;;;;;40.57;21.17;;;;;;;6.39;68.49;99881.00;126366;1099;104312;-78
2022/02/17 00:37:58;;;;;;;35.73;20.10;;;;;;;6.37;68.86;99876.54;126346;1098;104172;-78
2022/02/17 00:40:30;;;;;;;39.03;20.47;;;;;;;6.35;68.62;99871.27;126322;1099;104239;-79
2022/02/17 00:43:02;;;;;;;36.90;21.00;;;;;;;6.34;68.62;99872.08;126242;1099;104191;-78
2022/02/17 00:45:33;;;;;;;35.93;20.07;;;;;;;6.32;68.56;99865.92;126360;1099;104224;-79
2022/02/17 00:48:05;;;;;;;35.27;19.20;;;;;;;6.32;68.91;99865.04;126336;1099;104150;-79
2022/02/17 00:50:44;;;;;;;36.77;19.53;;;;;;;6.30;68.66;99862.38;126321;1099;104140;-78
2022/02/17 00:53:15;;;;;;;38.13;19.97;;;;;;;6.29;68.80;99857.97;126246;1099;104268;-79
2022/02/17 00:55:46;;;;;;;37.70;20.10;;;;;;;6.27;68.68;99859.63;126327;1099;104393;-78
2022/02/17 00:58:18;;;;;;;43.30;20.23;;;;;;;6.26;68.69;99850.94;126289;1099;102858;-78
2022/02/17 01:00:51;;;;;;;37.60;20.73;;;;;;;6.23;68.72;99853.41;126311;1096;104157;-78
2022/02/17 01:03:25;;;;;;;38.65;19.80;;;;;;;6.19;68.95;99859.30;126227;1099;104143;-78
2022/02/17 01:06:00;;;;;;;40.58;20.40;;;;;;;6.17;68.89;99854.84;126299;1099;104198;-79
2022/02/17 01:08:32;;;;;;;40.17;20.67;;;;;;;6.13;68.90;99863.37;126320;1099;104197;-78
2022/02/17 01:11:03;;;;;;;43.10;21.67;;;;;;;6.08;69.18;99861.44;126358;1099;104181;-79
2022/02/17 01:13:35;;;;;;;38.73;20.57;;;;;;;6.06;68.85;99855.29;126250;1098;104178;-79
2022/02/17 01:16:07;;;;;;;37.40;20.43;;;;;;;6.04;69.26;99858.64;126293;1097;104340;-79
2022/02/17 01:18:40;;;;;;;39.03;21.33;;;;;;;6.02;69.01;99860.30;126336;1097;104272;-78
2022/02/17 01:21:17;;;;;;;41.70;21.40;;;;;;;5.99;69.36;99865.38;126300;1099;104223;-79
2022/02/17 01:23:49;;;;;;;41.10;20.30;;;;;;;5.96;69.24;99860.88;126320;1099;104143;-79
2022/02/17 01:26:23;;;;;;;37.10;20.30;;;;;;;5.94;69.06;99859.92;126276;1099;104152;-79
2022/02/17 01:28:59;;;;;;;40.37;21.73;;;;;;;5.92;69.16;99853.73;126294;1099;104246;-78
2022/02/17 01:31:35;;;;;;;40.37;21.30;;;;;;;5.89;69.26;99844.09;126332;1099;104137;-79
2022/02/17 01:34:20;;;;;;;39.10;21.70;;;;;;;5.86;69.34;99840.45;126252;1099;104142;-80
2022/02/17 01:37:02;;;;;;;;;;;;;;;5.82;69.42;99836.83;126342;1097;104194;-78
2022/02/17 01:39:36;;;;;;;44.57;23.63;;;;;;;5.78;69.25;99831.42;126362;1096;104139;-79
2022/02/17 01:42:12;;;;;;;46.30;24.57;;;;;;;5.75;69.11;99826.98;126277;1096;104137;-79
2022/02/17 01:44:45;;;;;;;43.50;22.53;;;;;;;5.70;69.71;99828.47;126237;1099;104296;-79
2022/02/17 01:47:19;;;;;;;41.67;22.57;;;;;;;5.65;70.25;99823.06;126282;1099;104185;-78
2022/02/17 01:49:52;;;;;;;43.27;22.83;;;;;;;5.63;69.68;99829.92;126288;1099;104198;-79
2022/02/17 01:52:24;;;;;;;43.20;22.57;;;;;;;5.57;70.03;99825.33;126278;1099;104261;-78
2022/02/17 01:54:59;;;;;;;41.13;23.33;;;;;;;5.53;70.48;99826.03;126288;1096;104146;-79
2022/02/17 01:57:31;;;;;;;40.83;23.63;;;;;;;5.51;69.91;99821.56;126272;1099;104223;-78
2022/02/17 02:00:09;;;;;;;44.53;24.47;;;;;;;5.47;69.62;99817.94;126242;1099;104243;-78
2022/02/17 02:02:46;;;;;;;43.57;23.70;;;;;;;5.46;70.05;99821.36;126265;1096;104169;-79
2022/02/17 02:05:22;;;;;;;44.13;23.97;;;;;;;5.42;69.88;99811.62;126226;1096;104303;-78
2022/02/17 02:07:53;;;;;;;40.43;22.60;;;;;;;5.40;69.74;99811.55;126164;1099;104696;-77
2022/02/17 02:10:30;;;;;;;43.73;22.37;;;;;;;5.37;69.97;99795.80;126112;1099;104159;-78
2022/02/17 02:13:02;;;;;;;38.10;22.00;;;;;;;5.36;69.99;99794.04;126121;1097;104198;-77
2022/02/17 02:15:54;;;;;;;38.67;21.30;;;;;;;5.35;70.27;99789.65;126096;1096;104169;-78
2022/02/17 02:18:26;;;;;;;39.80;21.57;;;;;;;5.33;70.17;99783.50;126053;1099;104197;-78
2022/02/17 02:20:58;;;;;;;38.70;21.70;;;;;;;5.33;69.97;99793.91;126111;1096;104288;-77
2022/02/17 02:23:37;;;;;;;43.53;23.20;;;;;;;5.33;70.24;99793.91;126155;1096;104226;-78
2022/02/17 02:26:09;;;;;;;41.80;21.93;;;;;;;5.33;70.33;99779.98;126179;1096;104140;-78
2022/02/17 02:28:43;;;;;;;43.07;22.40;;;;;;;5.28;69.84;99774.57;126327;1099;104153;-78
2022/02/17 02:31:18;;;;;;;38.97;21.07;;;;;;;5.27;70.31;99774.53;126303;1099;104195;-78
2022/02/17 02:33:53;;;;;;;41.10;20.90;;;;;;;5.25;70.19;99773.55;126289;1099;104197;-79
2022/02/17 02:36:29;;;;;;;41.80;23.85;;;;;;;5.24;70.08;99761.39;126315;1096;104149;-79
2022/02/17 02:39:05;;;;;;;46.03;23.97;;;;;;;5.20;70.25;99760.34;126339;1096;104216;-78
2022/02/17 02:41:48;;;;;;;41.83;22.53;;;;;;;5.17;70.06;99757.59;126363;1096;104245;-79
2022/02/17 02:44:21;;;;;;;42.87;23.10;;;;;;;5.14;70.05;99762.66;126279;1099;104155;-78
2022/02/17 02:47:07;;;;;;;40.30;22.90;;;;;;;5.12;70.27;99759.11;126206;1099;104297;-78
2022/02/17 02:49:43;;;;;;;44.20;22.50;;;;;;;5.08;70.22;99755.48;126351;1099;104162;-80
2022/02/17 02:52:15;;;;;;;43.43;23.03;;;;;;;5.06;70.28;99753.62;126319;1099;104245;-78
2022/02/17 02:54:49;;;;;;;43.40;22.97;;;;;;;5.04;70.51;99749.23;126350;1098;104150;-78
2022/02/17 02:57:21;;;;;;;43.43;22.57;;;;;;;5.04;70.17;99749.23;126334;1096;104310;-78
2022/02/17 02:59:52;;;;;;;44.40;22.50;;;;;;;5.03;70.53;99742.27;126339;1096;104181;-78
2022/02/17 03:02:26;;;;;;;45.50;23.60;;;;;;;5.03;70.67;99730.96;126339;1096;104194;-78
2022/02/17 03:04:59;;;;;;;42.53;23.43;;;;;;;5.00;70.31;99734.34;126334;1095;104220;-79
2022/02/17 03:07:31;;;;;;;41.53;23.03;;;;;;;5.00;70.69;99731.73;126271;1099;101856;-79
2022/02/17 03:10:03;;;;;;;42.10;21.83;;;;;;;4.99;70.87;99722.14;126338;1099;104179;-79
2022/02/17 03:12:38;;;;;;;45.90;21.75;;;;;;;4.99;70.61;99713.47;126298;1099;103344;-78
2022/02/17 03:15:12;;;;;;;44.67;22.60;;;;;;;4.98;70.72;99707.35;126317;1098;104224;-79
2022/02/17 03:17:43;;;;;;;43.97;22.60;;;;;;;4.98;70.97;99712.55;126301;1096;104169;-79
2022/02/17 03:20:15;;;;;;;41.57;22.20;;;;;;;4.96;70.64;99714.20;126304;1099;104230;-79
2022/02/17 03:22:47;;;;;;;41.43;21.87;;;;;;;4.95;70.47;99711.53;126312;1099;104290;-78
2022/02/17 03:25:19;;;;;;;40.10;21.53;;;;;;;4.93;71.09;99714.06;126291;1096;104142;-79
2022/02/17 03:27:52;;;;;;;41.30;22.53;;;;;;;4.92;70.28;99704.47;126303;1096;104150;-79
2022/02/17 03:30:54;;;;;;;42.30;21.80;;;;;;;4.91;70.85;99701.80;126114;1099;104217;-79
2022/02/17 03:33:25;;;;;;;40.67;21.03;;;;;;;4.87;71.19;99692.98;126300;1099;104175;-79
2022/02/17 03:36:02;;;;;;;41.47;21.13;;;;;;;4.83;70.75;99681.56;126353;1097;104258;-78
2022/02/17 03:38:33;;;;;;;39.30;21.10;;;;;;;4.82;70.85;99684.09;126231;1099;104296;-79
2022/02/17 03:41:06;;;;;;;45.30;22.53;;;;;;;4.81;70.87;99677.11;126337;1096;104146;-78
2022/02/17 03:43:40;;;;;;;46.35;23.10;;;;;;;4.76;71.23;99679.50;126334;1096;104145;-78
2022/02/17 03:46:12;;;;;;;44.23;22.90;;;;;;;4.74;71.74;99673.35;126267;1099;104242;-79
2022/02/17 03:48:43;;;;;;;42.10;22.65;;;;;;;4.73;71.38;99663.77;126246;1099;118973;-78
2022/02/17 03:51:15;;;;;;;40.83;21.57;;;;;;;4.71;71.58;99664.53;126290;1099;104274;-78
2022/02/17 03:53:47;;;;;;;42.67;21.70;;;;;;;4.70;71.70;99649.75;126324;1099;104147;-78
2022/02/17 03:56:19;;;;;;;38.97;21.60;;;;;;;4.69;71.48;99646.27;126317;1099;104191;-79
2022/02/17 03:59:10;;;;;;;38.70;20.73;;;;;;;4.66;71.32;99636.61;126273;1096;104147;-79
2022/02/17 04:01:46;;;;;;;42.60;21.50;;;;;;;4.65;71.78;99629.63;126361;1096;104143;-79
2022/02/17 04:04:21;;;;;;;43.53;22.87;;;;;;;4.65;71.23;99641.74;126303;1096;104168;-78
2022/02/17 04:06:53;;;;;;;44.93;23.00;;;;;;;4.64;71.34;99637.35;126316;1099;104207;-78
2022/02/17 04:09:24;;;;;;;41.23;21.77;;;;;;;4.62;72.42;99626.89;126263;1099;111745;-80
2022/02/17 04:11:55;;;;;;;40.33;21.83;;;;;;;4.63;72.18;99635.59;126393;1099;104284;-79
2022/02/17 04:14:29;;;;;;;43.33;23.10;;;;;;;4.60;71.86;99625.94;126346;1099;104274;-79
2022/02/17 04:17:00;;;;;;;42.87;22.63;;;;;;;4.60;72.23;99619.87;126313;1099;105178;-79
2022/02/17 04:19:41;;;;;;;43.07;21.87;;;;;;;4.59;72.20;99612.87;126302;1096;104166;-79
2022/02/17 04:22:23;;;;;;;42.67;22.13;;;;;;;4.59;71.97;99613.75;126352;1096;104242;-78
2022/02/17 04:25:13;;;;;;;46.43;21.90;;;;;;;4.57;71.88;99612.81;126381;1096;104175;-79
2022/02/17 04:27:47;;;;;;;39.92;21.82;;;;;;;4.56;72.04;99612.73;126166;1096;104264;-78
2022/02/17 04:30:18;;;;;;;40.17;21.70;;;;;;;4.52;71.80;99603.92;126129;1099;104204;-78
2022/02/17 04:32:50;;;;;;;41.57;21.67;;;;;;;4.49;72.10;99609.86;126183;1099;104168;-78
2022/02/17 04:35:44;;;;;;;39.67;20.53;;;;;;;4.46;71.45;99598.45;126225;1099;104149;-78
2022/02/17 04:38:15;;;;;;;40.73;21.70;;;;;;;4.42;72.06;99593.92;126170;1098;104204;-79
2022/02/17 04:43:46;;;;;;;45.00;21.20;;;;;;;4.40;72.12;99582.58;126257;1099;104669;-79
2022/02/17 04:46:18;;;;;;;40.65;21.50;;;;;;;4.39;71.87;99580.80;126369;1099;104141;-78
2022/02/17 04:48:49;;;;;;;42.50;21.37;;;;;;;4.37;72.24;99580.73;126322;1099;105354;-79
2022/02/17 04:51:20;;;;;;;37.63;20.23;;;;;;;4.36;72.32;99567.67;126291;1099;104166;-80
2022/02/17 04:53:52;;;;;;;40.67;21.60;;;;;;;4.35;71.84;99559.00;126315;1099;104182;-79
2022/02/17 04:56:23;;;;;;;39.43;20.67;;;;;;;4.32;72.40;99564.93;126255;1099;104200;-79
2022/02/17 04:58:55;;;;;;;42.60;21.43;;;;;;;4.31;72.29;99557.95;126304;1099;104153;-79
2022/02/17 05:01:27;;;;;;;42.50;22.00;;;;;;;4.34;72.53;99564.13;126324;1099;104249;-80
2022/02/17 05:04:25;;;;;;;43.07;22.67;;;;;;;4.33;72.50;99560.61;126321;1099;104158;-80
2022/02/17 05:07:04;;;;;;;42.40;21.57;;;;;;;4.34;72.75;99565.00;126301;1099;104281;-79
2022/02/17 05:09:36;;;;;;;42.70;22.33;;;;;;;4.35;72.72;99564.19;126157;1097;104194;-79
2022/02/17 05:12:08;;;;;;;39.73;21.97;;;;;;;4.36;72.92;99565.07;126227;1099;104147;-79
2022/02/17 05:14:40;;;;;;;44.93;22.17;;;;;;;4.39;72.99;99544.43;126082;1098;104165;-79
2022/02/17 05:17:13;;;;;;;39.63;22.03;;;;;;;4.40;73.10;99538.42;126072;1099;104178;-77
2022/02/17 05:19:44;;;;;;;44.60;22.90;;;;;;;4.41;72.73;99550.58;125985;1099;104296;-77
2022/02/17 05:22:23;;;;;;;46.40;23.10;;;;;;;4.40;73.17;99549.70;125954;1098;104268;-77
2022/02/17 05:25:14;;;;;;;46.40;22.43;;;;;;;4.39;72.56;99540.11;126058;1099;104252;-77
2022/02/17 05:28:08;;;;;;;42.53;22.70;;;;;;;4.41;72.36;99542.78;126034;1099;104175;-76
2022/02/17 05:30:57;;;;;;;41.27;21.53;;;;;;;4.41;73.02;99542.78;126028;1099;104156;-78
2022/02/17 05:33:52;;;;;;;40.97;21.93;;;;;;;4.43;73.69;99544.64;126002;1099;104242;-78
2022/02/17 05:36:43;;;;;;;43.10;21.60;;;;;;;4.44;73.06;99540.32;126175;1099;104194;-79
2022/02/17 05:39:19;;;;;;;43.70;22.10;;;;;;;4.46;73.28;99521.39;126309;1097;104169;-81
2022/02/17 05:42:01;;;;;;;45.07;22.93;;;;;;;4.48;72.76;99522.34;126328;1099;104172;-79
2022/02/17 05:44:33;;;;;;;44.45;21.25;;;;;;;4.49;72.82;99518.05;126248;1097;104201;-79
2022/02/17 05:47:06;;;;;;;43.07;22.77;;;;;;;4.54;73.37;99521.73;126127;1099;104181;-79
2022/02/17 05:49:37;;;;;;;46.07;23.40;;;;;;;4.58;72.94;99522.75;126252;1099;104226;-79
2022/02/17 05:52:10;;;;;;;41.87;22.30;;;;;;;4.63;73.46;99522.14;126247;1099;104255;-78
2022/02/17 05:54:42;;;;;;;43.67;23.00;;;;;;;4.70;72.96;99518.09;126094;1099;104153;-79
2022/02/17 05:57:16;;;;;;;42.27;21.83;;;;;;;4.75;72.75;99526.96;126134;1099;104175;-79
2022/02/17 05:59:48;;;;;;;48.83;22.83;;;;;;;4.81;73.61;99527.23;126122;1099;104149;-79
2022/02/17 06:02:23;;;;;;;42.97;21.77;;;;;;;4.88;73.74;99527.48;126079;1098;104217;-79
2022/02/17 06:04:55;;;;;;;42.63;21.47;;;;;;;4.95;73.60;99519.14;126068;1099;104152;-79
2022/02/17 06:07:26;;;;;;;40.83;21.13;;;;;;;5.01;73.16;99507.28;126188;1099;104143;-79
2022/02/17 06:13:17;;;;;;;41.37;21.63;;;;;;;5.15;73.42;99510.45;125973;1099;104596;-77
2022/02/17 06:15:53;;;;;;;43.70;21.87;;;;;;;5.21;73.34;99505.51;125976;1099;104370;-76
2022/02/17 06:18:26;;;;;;;40.23;20.07;;;;;;;5.28;72.82;99492.76;126064;1099;104249;-77
2022/02/17 06:21:00;;;;;;;43.85;22.60;;;;;;;5.35;73.16;99494.80;126198;1099;104134;-78
2022/02/17 06:23:32;;;;;;;40.07;21.70;;;;;;;5.43;73.22;99505.51;126088;1099;104394;-79
2022/02/17 06:26:03;;;;;;;40.60;22.63;;;;;;;5.52;73.42;99511.95;126076;1099;104306;-78
2022/02/17 06:28:34;;;;;;;41.53;21.90;;;;;;;5.62;73.09;99510.60;125831;1099;104178;-80
2022/02/17 06:31:06;;;;;;;41.43;23.10;;;;;;;5.71;73.37;99513.56;125945;1099;104249;-79
2022/02/17 06:33:44;;;;;;;43.33;21.87;;;;;;;5.82;72.94;99505.30;125946;1099;104217;-77
2022/02/17 06:36:19;;;;;;;40.43;21.80;;;;;;;5.90;73.02;99507.35;125992;1099;104242;-79
2022/02/17 06:42:28;;;;;;;40.90;21.47;;;;;;;6.14;72.91;99492.64;125758;1096;104160;-77
2022/02/17 06:45:10;;;;;;;41.57;21.50;;;;;;;6.25;72.80;99486.12;126032;1096;104173;-79
2022/02/17 06:47:44;;;;;;;38.75;19.48;;;;;;;6.38;72.84;99479.64;125835;1096;104207;-78
2022/02/17 06:50:17;;;;;;;32.40;17.37;;;;;;;6.53;73.00;99480.19;125767;1096;104175;-80
2022/02/17 06:52:48;;;;;;;34.93;16.50;;;;;;;6.68;72.96;99482.42;125856;1099;104140;-79
2022/02/17 06:55:23;;;;;;;31.07;16.00;;;;;;;6.83;73.10;99474.26;126022;1099;104291;-79
2022/02/17 06:57:58;;;;;;;32.78;14.63;;;;;;;6.98;72.53;99474.78;125927;1099;104271;-78
2022/02/17 07:00:32;;;;;;;29.60;14.60;;;;;;;7.12;72.74;99462.20;125837;1099;104150;-78
2022/02/17 07:03:07;;;;;;;29.75;15.10;;;;;;;7.27;72.23;99463.53;125814;1099;104467;-78
2022/02/17 07:05:44;;;;;;;31.10;14.63;;;;;;;7.39;71.83;99453.48;125709;1099;104315;-79
2022/02/17 07:08:18;;;;;;;29.87;14.20;;;;;;;7.51;72.43;99440.81;125836;1099;104150;-79
2022/02/17 07:10:56;;;;;;;31.57;14.20;;;;;;;7.66;72.13;99437.77;125162;1099;104348;-78
2022/02/17 07:13:33;;;;;;;28.43;13.83;;;;;;;7.81;71.94;99445.19;125907;1099;110801;-78
2022/02/17 07:16:06;;;;;;;29.30;13.90;;;;;;;7.95;71.68;99419.48;125273;1099;104165;-78
2022/02/17 07:18:44;;;;;;;27.67;14.00;;;;;;;8.07;71.80;99413.70;125806;1099;104249;-78
2022/02/17 07:21:20;;;;;;;26.50;13.53;;;;;;;8.21;71.63;99415.00;125886;1099;102297;-79
2022/02/17 07:23:58;;;;;;;28.90;14.30;;;;;;;8.31;71.13;99410.02;125807;1099;104300;-79
2022/02/17 07:26:35;;;;;;;27.53;13.63;;;;;;;8.44;70.86;99409.52;125777;1099;104329;-79
2022/02/17 07:29:11;;;;;;;25.17;13.40;;;;;;;8.54;71.04;99400.19;125630;1099;104146;-80
2022/02/17 07:31:51;;;;;;;26.53;12.87;;;;;;;8.63;71.26;99389.97;125780;1098;104191;-79
2022/02/17 07:34:39;;;;;;;29.20;13.73;;;;;;;8.71;70.89;99393.69;125707;1099;104214;-80
2022/02/17 07:37:16;;;;;;;25.60;13.10;;;;;;;8.81;70.52;99392.18;125811;1099;104181;-79
2022/02/17 07:39:59;;;;;;;27.23;11.80;;;;;;;8.90;71.16;99387.17;125847;1099;104237;-79
2022/02/17 07:42:36;;;;;;;26.33;12.30;;;;;;;9.00;70.40;99383.05;125960;1098;104136;-80
2022/02/17 07:45:14;;;;;;;25.70;13.07;;;;;;;9.10;70.57;99377.19;125945;1099;104175;-81
2022/02/17 07:48:07;;;;;;;25.07;12.03;;;;;;;9.24;69.59;99374.90;125993;1099;104249;-83
2022/02/17 07:50:42;;;;;;;24.83;11.60;;;;;;;9.33;69.69;99367.26;126046;1099;104236;-81
2022/02/17 07:53:19;;;;;;;32.63;11.83;;;;;;;9.46;69.62;99359.67;125913;1099;104216;-80
2022/02/17 07:55:52;;;;;;;24.53;11.77;;;;;;;9.54;69.53;99356.35;125857;1099;104191;-82
2022/02/17 07:58:28;;;;;;;25.53;11.97;;;;;;;9.66;69.32;99353.13;125881;1099;104316;-80
2022/02/17 08:01:07;;;;;;;27.27;12.63;;;;;;;9.74;69.01;99347.14;125812;1099;104248;-82
2022/02/17 08:03:40;;;;;;;28.30;12.70;;;;;;;9.82;68.21;99345.58;126002;1099;104223;-80
2022/02/17 08:06:43;;;;;;;;;;;;;;;;;;;;;
2022/02/17 08:09:26;;;;;;;26.70;11.57;;;;;;;9.97;67.37;99344.98;125822;1099;104143;-80
2022/02/17 08:12:14;;;;;;;23.77;10.90;;;;;;;10.05;66.73;99335.52;125871;1099;104224;-83
2022/02/17 08:14:51;;;;;;;21.23;11.07;;;;;;;10.18;67.55;99342.78;125785;1099;108052;-82
2022/02/17 08:17:28;;;;;;;21.67;10.87;;;;;;;10.24;67.50;99334.16;125951;1099;104002;-80
2022/02/17 08:20:06;;;;;;;23.90;11.27;;;;;;;10.31;66.61;99343.88;126157;1099;104219;-81
2022/02/17 08:23:10;;;;;;;;;;;;;;;;;;;;;
2022/02/17 08:25:45;;;;;;;26.47;11.67;;;;;;;10.53;66.56;99321.59;126213;1099;118919;-83
2022/02/17 08:28:21;;;;;;;26.20;11.63;;;;;;;10.64;67.02;99313.00;126026;1099;104143;-82
2022/02/17 08:31:17;;;;;;;24.80;11.03;;;;;;;10.76;66.85;99305.33;126004;1099;104178;-82
2022/02/17 08:37:16;;;;;;;26.67;10.77;;;;;;;11.02;65.38;99278.61;125955;1099;104232;-83
2022/02/17 08:40:19;;;;;;;22.17;10.60;;;;;;;11.14;63.71;99282.28;125385;1099;104204;-81
2022/02/17 08:42:54;;;;;;;21.23;10.43;;;;;;;11.29;65.35;99270.22;125926;1099;104185;-82
2022/02/17 08:45:33;;;;;;;23.73;10.37;;;;;;;11.42;65.79;99248.51;125209;1102;105366;-80
2022/02/17 08:48:15;;;;;;;19.53;9.73;;;;;;;11.54;65.38;99234.62;125877;1099;104220;-80
2022/02/17 08:51:02;;;;;;;22.70;9.57;;;;;;;11.67;64.98;99226.02;125427;1098;104177;-79
2022/02/17 08:53:38;;;;;;;22.27;9.63;;;;;;;11.81;63.63;99228.80;125197;1099;103652;-79
2022/02/17 08:56:29;;;;;;;20.93;9.70;;;;;;;11.95;64.19;99215.83;125134;1099;107701;-79
2022/02/17 08:59:20;;;;;;;21.90;9.00;;;;;;;12.05;64.08;99215.03;125667;1099;104181;-80
2022/02/17 09:02:04;;;;;;;24.60;8.80;;;;;;;12.17;62.01;99205.47;125196;1099;104211;-80
2022/02/17 09:04:39;;;;;;;21.53;9.33;;;;;;;12.28;61.94;99206.47;125875;1099;104145;-81
2022/02/17 09:07:24;;;;;;;17.50;8.00;;;;;;;12.43;60.66;99199.55;125734;1099;104301;-80
2022/02/17 09:10:02;;;;;;;19.35;8.15;;;;;;;12.53;61.21;99194.38;125653;1099;104254;-81
2022/02/17 09:12:50;;;;;;;18.80;7.85;;;;;;;12.68;60.99;99184.81;125712;1099;104174;-82
2022/02/17 09:15:31;;;;;;;20.17;8.30;;;;;;;12.81;60.34;99186.66;125792;1099;104272;-81
2022/02/17 09:18:22;;;;;;;17.90;7.80;;;;;;;12.93;61.07;99184.09;126078;1099;104134;-81
2022/02/17 09:21:01;;;;;;;23.37;8.27;;;;;;;13.06;59.73;99182.39;125887;1099;104224;-81
2022/02/17 09:23:47;;;;;;;20.13;8.10;;;;;;;13.19;60.06;99172.77;126138;1099;104296;-81
2022/02/17 09:26:36;;;;;;;16.65;6.95;;;;;;;13.32;59.78;99171.06;126125;1099;104242;-80
2022/02/17 09:29:14;;;;;;;20.17;7.73;;;;;;;13.43;59.37;99166.75;126039;1099;104219;-81
2022/02/17 09:31:58;;;;;;;16.80;7.37;;;;;;;13.54;59.12;99158.88;126201;1099;104178;-80
2022/02/17 09:34:37;;;;;;;19.23;7.37;;;;;;;13.69;59.31;99146.59;125918;1099;104297;-81
2022/02/17 09:37:24;;;;;;;16.93;7.40;;;;;;;13.83;59.15;99135.17;126114;1099;107016;-80
2022/02/17 09:40:20;;;;;;;19.73;7.13;;;;;;;13.96;58.32;99136.08;126139;1099;104201;-82
2022/02/17 09:42:58;;;;;;;18.60;6.70;;;;;;;13.97;57.12;99121.99;125868;1099;104140;-81
2022/02/17 09:45:42;;;;;;;16.10;7.10;;;;;;;14.05;56.82;99123.76;125900;1099;104452;-78
2022/02/17 09:48:17;;;;;;;18.20;7.17;;;;;;;14.09;57.33;99109.70;126004;1099;104207;-80
2022/02/17 09:50:50;;;;;;;14.67;6.40;;;;;;;14.15;55.84;99102.66;125925;1099;104127;-80
2022/02/17 09:53:24;;;;;;;13.00;6.20;;;;;;;14.22;55.41;99094.73;125832;1099;104161;-80
2022/02/17 09:55:57;;;;;;;17.17;6.95;;;;;;;14.24;55.20;99083.27;125895;1099;104323;-79
2022/02/17 09:58:30;;;;;;;19.20;6.80;;;;;;;14.26;54.82;99072.72;125991;1099;104172;-80
2022/02/17 10:01:08;;;;;;;14.37;5.77;;;;;;;14.34;54.76;99074.47;125838;1099;104133;-81
2022/02/17 10:04:22;;;;;;;14.57;6.07;;;;;;;14.42;54.55;99060.39;125741;1099;104355;-82
2022/02/17 10:07:17;;;;;;;19.77;6.97;;;;;;;14.48;53.16;99055.96;125764;1099;104399;-81
2022/02/17 10:10:02;;;;;;;16.77;6.23;;;;;;;14.54;53.59;99044.52;126157;1099;104286;-79
2022/02/17 10:13:01;;;;;;;16.97;6.60;;;;;;;14.59;53.86;99036.58;125990;1099;104140;-80
2022/02/17 10:15:37;;;;;;;14.83;6.33;;;;;;;14.58;52.18;99022.48;125843;1099;104168;-81
2022/02/17 10:18:21;;;;;;;13.80;6.30;;;;;;;14.61;53.66;99001.38;125893;1099;108076;-79
2022/02/17 10:21:02;;;;;;;15.53;6.83;;;;;;;14.61;53.04;99004.02;125937;1099;104245;-80
2022/02/17 10:23:52;;;;;;;14.63;6.23;;;;;;;14.66;52.98;99001.36;125836;1099;104150;-81
2022/02/17 10:26:31;;;;;;;14.67;5.90;;;;;;;14.72;52.91;98999.59;125868;1098;104213;-80
2022/02/17 10:29:08;;;;;;;15.07;5.53;;;;;;;14.79;51.73;98986.33;125839;1099;104140;-79
2022/02/17 10:31:51;;;;;;;;;;;;;;;;;;;;;
2022/02/17 10:34:31;;;;;;;17.55;6.25;;;;;;;15.05;51.69;98970.33;125841;1099;104230;-81
2022/02/17 10:37:03;;;;;;;15.60;5.53;;;;;;;15.19;51.70;98954.38;125896;1099;104223;-80
2022/02/17 10:39:51;;;;;;;16.57;5.50;;;;;;;15.27;50.90;98952.57;125694;1098;104265;-80
2022/02/17 10:42:36;;;;;;;12.87;5.30;;;;;;;15.30;49.22;98941.94;125788;1099;104335;-81
2022/02/17 10:45:24;;;;;;;13.87;5.27;;;;;;;15.45;49.97;98938.30;125822;1099;102350;-79
2022/02/17 10:48:14;;;;;;;12.63;5.20;;;;;;;15.53;48.76;98922.38;125848;1097;104168;-79
2022/02/17 10:51:06;;;;;;;13.40;5.40;;;;;;;15.61;48.46;98920.52;125852;1099;104271;-78
2022/02/17 10:53:45;;;;;;;15.57;5.10;;;;;;;15.62;47.56;98915.22;125651;1098;104291;-80
2022/02/17 10:56:23;;;;;;;13.43;5.30;;;;;;;15.54;48.14;98914.42;125715;1099;104200;-82
2022/02/17 10:59:03;;;;;;;14.00;5.83;;;;;;;15.43;47.34;98911.89;125902;1099;109467;-80
2022/02/17 11:01:37;;;;;;;15.63;5.87;;;;;;;15.41;47.41;98910.14;125955;1099;104171;-81
2022/02/17 11:04:20;;;;;;;16.80;5.73;;;;;;;15.43;47.14;98897.80;125868;1099;104169;-80
2022/02/17 11:06:53;;;;;;;11.97;5.77;;;;;;;15.46;46.37;98890.71;125876;1099;104168;-80
2022/02/17 11:09:40;;;;;;;12.27;5.13;;;;;;;15.40;45.80;98882.84;125951;1099;118990;-82
2022/02/17 11:12:16;;;;;;;13.17;5.57;;;;;;;15.36;45.86;98896.09;125590;1099;104236;-81
2022/02/17 11:14:50;;;;;;;15.03;5.40;;;;;;;15.44;47.53;98895.15;125507;1099;104178;-80
2022/02/17 11:17:25;;;;;;;10.83;5.37;;;;;;;15.46;46.39;98880.14;125546;1099;104171;-79
2022/02/17 11:19:59;;;;;;;11.30;4.90;;;;;;;15.45;44.12;98873.09;125504;1099;102370;-81
2022/02/17 11:22:32;;;;;;;14.60;5.10;;;;;;;15.39;45.76;98869.64;127165;1098;102990;-83
2022/02/17 11:25:13;;;;;;;14.50;5.13;;;;;;;15.27;46.06;98875.94;127194;1099;101952;-81
2022/02/17 11:28:06;;;;;;;16.80;6.53;;;;;;;15.21;45.95;98868.94;125913;1099;104246;-82
2022/02/17 11:30:40;;;;;;;16.97;6.00;;;;;;;15.15;45.87;98860.20;125625;1099;104236;-81
2022/02/17 11:33:27;;;;;;;16.93;5.50;;;;;;;15.11;45.87;98856.69;125834;1098;102014;-81
2022/02/17 11:36:22;;;;;;;15.87;6.13;;;;;;;15.07;46.04;98854.98;125703;1099;104224;-80
2022/02/17 11:38:55;;;;;;;15.27;6.20;;;;;;;15.06;45.42;98859.37;125641;1099;104315;-80
2022/02/17 11:41:34;;;;;;;13.93;5.67;;;;;;;15.07;45.14;98858.48;125804;1096;103958;-79
2022/02/17 11:44:20;;;;;;;16.70;7.03;;;;;;;15.08;44.42;98849.69;125809;1099;104233;-80
2022/02/17 11:46:56;;;;;;;20.37;7.80;;;;;;;15.12;45.43;98850.52;125770;1099;104251;-80
2022/02/17 11:49:51;;;;;;;20.70;9.23;;;;;;;15.13;44.78;98844.36;126391;1096;104309;-80
2022/02/17 11:52:24;;;;;;;;;;;;;;;15.13;44.52;98843.46;125748;1099;104200;-81
2022/02/17 11:55:25;;;;;;;18.97;8.17;;;;;;;15.14;44.38;98834.66;125681;1098;104271;-80
2022/02/17 11:57:59;;;;;;;17.77;8.03;;;;;;;15.21;44.63;98825.80;126024;1099;105486;-79
2022/02/17 12:00:37;;;;;;;18.27;8.27;;;;;;;15.33;44.34;98816.84;126173;1096;104149;-79
2022/02/17 12:03:13;;;;;;;20.63;8.43;;;;;;;15.43;45.04;98811.45;126076;1096;104229;-79
2022/02/17 12:05:49;;;;;;;18.90;7.77;;;;;;;15.50;44.07;98809.60;126018;1096;104146;-81
2022/02/17 12:08:45;;;;;;;19.80;8.30;;;;;;;15.61;45.02;98788.33;125946;1099;104206;-79
2022/02/17 12:11:36;;;;;;;27.57;8.23;;;;;;;15.74;43.44;98774.08;125793;1099;104242;-80
2022/02/17 12:14:13;;;;;;;17.13;6.90;;;;;;;15.85;44.24;98778.36;125785;1099;104162;-80